sensor_id;sensor_type;location;lat;lon;timestamp;P1;durP1;ratioP1;P2;durP2;ratioP2
22967;SDS011;11650;48.106;-1.696;2023-03-01T01:42:28;52.47;;;31.23;;
22967;SDS011;11650;48.106;-1.696;2023-03-01T01:47:58;48.47;;;29.67;;
22967;SDS011;11650;48.106;-1.696;2023-03-01T01:50:28;48.50;;;29.90;;
22967;SDS011;11650;48.106;-1.696;2023-03-01T01:53:03;47.63;;;29.80;;
22967;SDS011;11650;48.106;-1.696;2023-03-01T01:55:45;49.17;;;29.63;;
22967;SDS011;11650;48.106;-1.696;2023-03-01T01:58:32;52.70;;;29.40;;
22967;SDS011;11650;48.106;-1.696;2023-03-01T02:00:58;45.43;;;28.90;;
22967;SDS011;11650;48.106;-1.696;2023-03-01T02:03:26;46.20;;;29.33;;
22967;SDS011;11650;48.106;-1.696;2023-03-01T02:06:06;48.50;;;29.73;;
22967;SDS011;11650;48.106;-1.696;2023-03-01T02:08:57;50.40;;;29.90;;
22967;SDS011;11650;48.106;-1.696;2023-03-01T02:11:27;48.97;;;29.23;;
22967;SDS011;11650;48.106;-1.696;2023-03-01T02:13:56;45.93;;;28.40;;
22967;SDS011;11650;48.106;-1.696;2023-03-01T02:16:21;45.57;;;27.90;;
22967;SDS011;11650;48.106;-1.696;2023-03-01T02:18:47;41.70;;;27.37;;
22967;SDS011;11650;48.106;-1.696;2023-03-01T02:21:23;41.97;;;27.03;;
22967;SDS011;11650;48.106;-1.696;2023-03-01T02:24:17;43.73;;;26.33;;
22967;SDS011;11650;48.106;-1.696;2023-03-01T02:26:51;40.17;;;26.37;;
22967;SDS011;11650;48.106;-1.696;2023-03-01T02:29:20;43.33;;;26.00;;
22967;SDS011;11650;48.106;-1.696;2023-03-01T02:31:48;38.50;;;24.53;;
22967;SDS011;11650;48.106;-1.696;2023-03-01T02:34:17;38.43;;;24.93;;
22967;SDS011;11650;48.106;-1.696;2023-03-01T02:39:21;39.47;;;25.23;;
22967;SDS011;11650;48.106;-1.696;2023-03-01T02:41:54;36.73;;;23.07;;
22967;SDS011;11650;48.106;-1.696;2023-03-01T02:44:21;35.27;;;23.97;;
22967;SDS011;11650;48.106;-1.696;2023-03-01T02:46:48;39.50;;;25.67;;
22967;SDS011;11650;48.106;-1.696;2023-03-01T02:49:17;38.83;;;25.33;;
22967;SDS011;11650;48.106;-1.696;2023-03-01T02:51:52;39.27;;;24.27;;
22967;SDS011;11650;48.106;-1.696;2023-03-01T02:54:25;36.03;;;23.37;;
22967;SDS011;11650;48.106;-1.696;2023-03-01T02:56:57;36.30;;;24.13;;
22967;SDS011;11650;48.106;-1.696;2023-03-01T02:59:24;33.50;;;23.23;;
22967;SDS011;11650;48.106;-1.696;2023-03-01T03:01:54;36.43;;;23.43;;
22967;SDS011;11650;48.106;-1.696;2023-03-01T03:04:20;35.80;;;23.67;;
22967;SDS011;11650;48.106;-1.696;2023-03-01T03:06:46;36.33;;;23.13;;
22967;SDS011;11650;48.106;-1.696;2023-03-01T03:09:13;35.87;;;23.90;;
22967;SDS011;11650;48.106;-1.696;2023-03-01T03:11:40;34.43;;;22.80;;
22967;SDS011;11650;48.106;-1.696;2023-03-01T03:14:07;37.33;;;22.37;;
22967;SDS011;11650;48.106;-1.696;2023-03-01T03:16:39;37.37;;;23.93;;
22967;SDS011;11650;48.106;-1.696;2023-03-01T03:19:09;38.97;;;24.43;;
22967;SDS011;11650;48.106;-1.696;2023-03-01T03:21:35;37.50;;;23.97;;
22967;SDS011;11650;48.106;-1.696;2023-03-01T03:24:01;36.80;;;24.03;;
22967;SDS011;11650;48.106;-1.696;2023-03-01T03:26:27;37.20;;;23.77;;
22967;SDS011;11650;48.106;-1.696;2023-03-01T03:28:52;38.30;;;23.93;;
22967;SDS011;11650;48.106;-1.696;2023-03-01T03:31:18;39.57;;;23.60;;
22967;SDS011;11650;48.106;-1.696;2023-03-01T03:33:44;37.50;;;23.67;;
22967;SDS011;11650;48.106;-1.696;2023-03-01T03:36:09;38.77;;;23.77;;
22967;SDS011;11650;48.106;-1.696;2023-03-01T03:38:47;40.00;;;24.37;;
22967;SDS011;11650;48.106;-1.696;2023-03-01T03:41:13;35.37;;;23.57;;
22967;SDS011;11650;48.106;-1.696;2023-03-01T03:43:40;35.70;;;23.47;;
22967;SDS011;11650;48.106;-1.696;2023-03-01T03:46:07;35.60;;;23.77;;
22967;SDS011;11650;48.106;-1.696;2023-03-01T03:48:38;39.37;;;24.33;;
22967;SDS011;11650;48.106;-1.696;2023-03-01T03:51:06;37.67;;;24.07;;
22967;SDS011;11650;48.106;-1.696;2023-03-01T03:53:34;37.20;;;24.30;;
22967;SDS011;11650;48.106;-1.696;2023-03-01T03:56:00;37.23;;;23.60;;
22967;SDS011;11650;48.106;-1.696;2023-03-01T03:58:26;38.57;;;23.23;;
22967;SDS011;11650;48.106;-1.696;2023-03-01T04:00:53;36.07;;;23.10;;
22967;SDS011;11650;48.106;-1.696;2023-03-01T04:03:23;36.97;;;22.97;;
22967;SDS011;11650;48.106;-1.696;2023-03-01T04:05:50;38.10;;;23.63;;
22967;SDS011;11650;48.106;-1.696;2023-03-01T04:08:18;37.33;;;23.53;;
22967;SDS011;11650;48.106;-1.696;2023-03-01T04:10:46;39.60;;;24.00;;
22967;SDS011;11650;48.106;-1.696;2023-03-01T04:13:15;38.10;;;24.10;;
22967;SDS011;11650;48.106;-1.696;2023-03-01T04:15:44;37.93;;;23.90;;
22967;SDS011;11650;48.106;-1.696;2023-03-01T04:18:20;37.53;;;23.73;;
22967;SDS011;11650;48.106;-1.696;2023-03-01T04:20:47;36.37;;;21.60;;
22967;SDS011;11650;48.106;-1.696;2023-03-01T04:23:14;33.13;;;21.83;;
22967;SDS011;11650;48.106;-1.696;2023-03-01T04:28:14;34.50;;;22.27;;
22967;SDS011;11650;48.106;-1.696;2023-03-01T04:30:41;35.47;;;21.83;;
22967;SDS011;11650;48.106;-1.696;2023-03-01T04:33:07;33.37;;;21.50;;
22967;SDS011;11650;48.106;-1.696;2023-03-01T04:35:34;33.27;;;21.30;;
22967;SDS011;11650;48.106;-1.696;2023-03-01T04:38:01;36.00;;;21.80;;
22967;SDS011;11650;48.106;-1.696;2023-03-01T04:40:27;33.00;;;21.33;;
22967;SDS011;11650;48.106;-1.696;2023-03-01T04:42:53;33.30;;;21.50;;
22967;SDS011;11650;48.106;-1.696;2023-03-01T04:45:19;35.53;;;22.37;;
22967;SDS011;11650;48.106;-1.696;2023-03-01T04:47:45;35.63;;;23.07;;
22967;SDS011;11650;48.106;-1.696;2023-03-01T04:50:12;35.33;;;23.00;;
22967;SDS011;11650;48.106;-1.696;2023-03-01T04:52:39;34.80;;;22.30;;
22967;SDS011;11650;48.106;-1.696;2023-03-01T04:55:06;32.97;;;21.93;;
22967;SDS011;11650;48.106;-1.696;2023-03-01T04:57:32;33.70;;;21.50;;
22967;SDS011;11650;48.106;-1.696;2023-03-01T04:59:58;33.70;;;22.00;;
22967;SDS011;11650;48.106;-1.696;2023-03-01T05:02:24;34.83;;;22.70;;
22967;SDS011;11650;48.106;-1.696;2023-03-01T05:04:50;32.83;;;22.53;;
22967;SDS011;11650;48.106;-1.696;2023-03-01T05:07:15;38.63;;;21.13;;
22967;SDS011;11650;48.106;-1.696;2023-03-01T05:09:45;36.13;;;22.63;;
22967;SDS011;11650;48.106;-1.696;2023-03-01T05:12:11;36.87;;;22.03;;
22967;SDS011;11650;48.106;-1.696;2023-03-01T05:14:38;34.57;;;22.07;;
22967;SDS011;11650;48.106;-1.696;2023-03-01T05:17:04;32.70;;;21.87;;
22967;SDS011;11650;48.106;-1.696;2023-03-01T05:19:30;32.23;;;21.83;;
22967;SDS011;11650;48.106;-1.696;2023-03-01T05:21:56;34.50;;;21.90;;
22967;SDS011;11650;48.106;-1.696;2023-03-01T05:24:29;35.57;;;22.63;;
22967;SDS011;11650;48.106;-1.696;2023-03-01T05:26:56;34.43;;;22.57;;
22967;SDS011;11650;48.106;-1.696;2023-03-01T05:29:23;31.47;;;21.67;;
22967;SDS011;11650;48.106;-1.696;2023-03-01T05:31:59;32.03;;;21.33;;
22967;SDS011;11650;48.106;-1.696;2023-03-01T05:34:27;34.60;;;20.63;;
22967;SDS011;11650;48.106;-1.696;2023-03-01T05:36:54;34.73;;;21.50;;
22967;SDS011;11650;48.106;-1.696;2023-03-01T05:39:21;33.23;;;20.27;;
22967;SDS011;11650;48.106;-1.696;2023-03-01T05:41:48;35.23;;;22.27;;
22967;SDS011;11650;48.106;-1.696;2023-03-01T05:44:17;35.23;;;20.83;;
22967;SDS011;11650;48.106;-1.696;2023-03-01T05:46:43;31.67;;;20.47;;
22967;SDS011;11650;48.106;-1.696;2023-03-01T05:49:10;31.47;;;20.77;;
22967;SDS011;11650;48.106;-1.696;2023-03-01T05:51:36;32.70;;;21.53;;
22967;SDS011;11650;48.106;-1.696;2023-03-01T05:54:01;32.33;;;21.50;;
22967;SDS011;11650;48.106;-1.696;2023-03-01T05:56:27;31.63;;;20.57;;
22967;SDS011;11650;48.106;-1.696;2023-03-01T05:58:54;30.73;;;19.90;;
22967;SDS011;11650;48.106;-1.696;2023-03-01T06:01:19;34.20;;;20.63;;
22967;SDS011;11650;48.106;-1.696;2023-03-01T06:03:45;34.87;;;20.77;;
22967;SDS011;11650;48.106;-1.696;2023-03-01T06:06:10;30.37;;;20.83;;
22967;SDS011;11650;48.106;-1.696;2023-03-01T06:08:36;30.67;;;20.33;;
22967;SDS011;11650;48.106;-1.696;2023-03-01T06:11:02;33.97;;;20.47;;
22967;SDS011;11650;48.106;-1.696;2023-03-01T06:13:27;31.73;;;20.17;;
22967;SDS011;11650;48.106;-1.696;2023-03-01T06:15:53;32.13;;;20.43;;
22967;SDS011;11650;48.106;-1.696;2023-03-01T06:18:19;30.80;;;20.10;;
22967;SDS011;11650;48.106;-1.696;2023-03-01T06:20:44;30.73;;;19.97;;
22967;SDS011;11650;48.106;-1.696;2023-03-01T06:23:17;30.90;;;20.30;;
22967;SDS011;11650;48.106;-1.696;2023-03-01T06:25:42;33.17;;;20.60;;
22967;SDS011;11650;48.106;-1.696;2023-03-01T06:28:08;30.60;;;20.20;;
22967;SDS011;11650;48.106;-1.696;2023-03-01T06:30:33;32.63;;;20.93;;
22967;SDS011;11650;48.106;-1.696;2023-03-01T06:33:00;34.80;;;20.20;;
22967;SDS011;11650;48.106;-1.696;2023-03-01T06:35:26;28.77;;;19.80;;
22967;SDS011;11650;48.106;-1.696;2023-03-01T06:37:54;29.30;;;19.30;;
22967;SDS011;11650;48.106;-1.696;2023-03-01T06:40:20;31.30;;;20.20;;
22967;SDS011;11650;48.106;-1.696;2023-03-01T06:42:47;32.00;;;19.70;;
22967;SDS011;11650;48.106;-1.696;2023-03-01T06:45:14;29.90;;;18.53;;
22967;SDS011;11650;48.106;-1.696;2023-03-01T06:47:41;30.13;;;19.33;;
22967;SDS011;11650;48.106;-1.696;2023-03-01T06:50:07;28.07;;;18.77;;
22967;SDS011;11650;48.106;-1.696;2023-03-01T06:52:33;30.27;;;18.87;;
22967;SDS011;11650;48.106;-1.696;2023-03-01T06:54:58;30.00;;;19.40;;
22967;SDS011;11650;48.106;-1.696;2023-03-01T06:57:25;30.33;;;19.20;;
22967;SDS011;11650;48.106;-1.696;2023-03-01T06:59:50;31.67;;;19.83;;
22967;SDS011;11650;48.106;-1.696;2023-03-01T07:02:16;29.40;;;19.30;;
22967;SDS011;11650;48.106;-1.696;2023-03-01T07:04:42;29.83;;;18.87;;
22967;SDS011;11650;48.106;-1.696;2023-03-01T07:07:08;31.50;;;19.63;;
22967;SDS011;11650;48.106;-1.696;2023-03-01T07:09:34;28.93;;;19.03;;
22967;SDS011;11650;48.106;-1.696;2023-03-01T07:12:00;29.77;;;18.63;;
22967;SDS011;11650;48.106;-1.696;2023-03-01T07:14:26;27.03;;;18.77;;
22967;SDS011;11650;48.106;-1.696;2023-03-01T07:16:52;29.70;;;18.77;;
22967;SDS011;11650;48.106;-1.696;2023-03-01T07:19:18;32.30;;;19.70;;
22967;SDS011;11650;48.106;-1.696;2023-03-01T07:21:44;26.60;;;17.60;;
22967;SDS011;11650;48.106;-1.696;2023-03-01T07:24:10;28.77;;;18.97;;
22967;SDS011;11650;48.106;-1.696;2023-03-01T07:26:36;29.27;;;18.77;;
22967;SDS011;11650;48.106;-1.696;2023-03-01T07:29:03;28.00;;;17.90;;
22967;SDS011;11650;48.106;-1.696;2023-03-01T07:31:30;30.90;;;18.17;;
22967;SDS011;11650;48.106;-1.696;2023-03-01T07:33:56;26.57;;;17.00;;
22967;SDS011;11650;48.106;-1.696;2023-03-01T07:36:22;28.87;;;17.10;;
22967;SDS011;11650;48.106;-1.696;2023-03-01T07:38:48;26.67;;;16.57;;
22967;SDS011;11650;48.106;-1.696;2023-03-01T07:41:14;27.20;;;16.63;;
22967;SDS011;11650;48.106;-1.696;2023-03-01T07:43:39;26.43;;;16.40;;
22967;SDS011;11650;48.106;-1.696;2023-03-01T07:46:05;29.03;;;17.00;;
22967;SDS011;11650;48.106;-1.696;2023-03-01T07:48:32;26.60;;;17.50;;
22967;SDS011;11650;48.106;-1.696;2023-03-01T07:50:58;28.10;;;17.13;;
22967;SDS011;11650;48.106;-1.696;2023-03-01T07:53:28;26.83;;;16.80;;
22967;SDS011;11650;48.106;-1.696;2023-03-01T07:56:11;27.37;;;17.83;;
22967;SDS011;11650;48.106;-1.696;2023-03-01T07:58:38;23.57;;;16.20;;
22967;SDS011;11650;48.106;-1.696;2023-03-01T08:01:06;32.00;;;17.07;;
22967;SDS011;11650;48.106;-1.696;2023-03-01T08:03:33;27.07;;;16.40;;
22967;SDS011;11650;48.106;-1.696;2023-03-01T08:06:00;25.80;;;16.30;;
22967;SDS011;11650;48.106;-1.696;2023-03-01T08:08:27;26.23;;;16.87;;
22967;SDS011;11650;48.106;-1.696;2023-03-01T08:10:55;25.67;;;16.17;;
22967;SDS011;11650;48.106;-1.696;2023-03-01T08:13:22;28.03;;;15.97;;
22967;SDS011;11650;48.106;-1.696;2023-03-01T08:15:51;25.77;;;15.90;;
22967;SDS011;11650;48.106;-1.696;2023-03-01T08:18:17;25.33;;;16.00;;
22967;SDS011;11650;48.106;-1.696;2023-03-01T08:20:44;28.53;;;17.43;;
22967;SDS011;11650;48.106;-1.696;2023-03-01T08:23:10;23.83;;;15.47;;
22967;SDS011;11650;48.106;-1.696;2023-03-01T08:25:36;23.17;;;15.83;;
22967;SDS011;11650;48.106;-1.696;2023-03-01T08:28:02;24.40;;;15.57;;
22967;SDS011;11650;48.106;-1.696;2023-03-01T08:30:27;25.00;;;15.93;;
22967;SDS011;11650;48.106;-1.696;2023-03-01T08:32:53;24.30;;;15.73;;
22967;SDS011;11650;48.106;-1.696;2023-03-01T08:35:19;25.53;;;15.53;;
22967;SDS011;11650;48.106;-1.696;2023-03-01T08:37:45;24.90;;;14.63;;
22967;SDS011;11650;48.106;-1.696;2023-03-01T08:40:11;22.13;;;14.47;;
22967;SDS011;11650;48.106;-1.696;2023-03-01T08:42:39;27.00;;;16.13;;
22967;SDS011;11650;48.106;-1.696;2023-03-01T08:45:05;26.67;;;16.23;;
22967;SDS011;11650;48.106;-1.696;2023-03-01T08:47:32;25.50;;;15.30;;
22967;SDS011;11650;48.106;-1.696;2023-03-01T08:49:58;25.90;;;15.03;;
22967;SDS011;11650;48.106;-1.696;2023-03-01T08:52:25;22.80;;;15.40;;
22967;SDS011;11650;48.106;-1.696;2023-03-01T08:54:51;25.77;;;15.93;;
22967;SDS011;11650;48.106;-1.696;2023-03-01T08:57:17;22.60;;;14.97;;
22967;SDS011;11650;48.106;-1.696;2023-03-01T08:59:43;23.47;;;15.03;;
22967;SDS011;11650;48.106;-1.696;2023-03-01T09:02:12;21.93;;;14.53;;
22967;SDS011;11650;48.106;-1.696;2023-03-01T09:04:40;25.07;;;15.70;;
22967;SDS011;11650;48.106;-1.696;2023-03-01T09:07:06;24.33;;;15.40;;
22967;SDS011;11650;48.106;-1.696;2023-03-01T09:09:32;24.97;;;15.43;;
22967;SDS011;11650;48.106;-1.696;2023-03-01T09:11:58;24.07;;;15.40;;
22967;SDS011;11650;48.106;-1.696;2023-03-01T09:14:24;24.30;;;15.60;;
22967;SDS011;11650;48.106;-1.696;2023-03-01T09:16:50;23.93;;;15.53;;
22967;SDS011;11650;48.106;-1.696;2023-03-01T09:19:15;27.23;;;16.60;;
22967;SDS011;11650;48.106;-1.696;2023-03-01T09:21:41;27.23;;;17.43;;
22967;SDS011;11650;48.106;-1.696;2023-03-01T09:24:17;26.83;;;16.03;;
22967;SDS011;11650;48.106;-1.696;2023-03-01T09:26:44;32.47;;;18.57;;
22967;SDS011;11650;48.106;-1.696;2023-03-01T09:29:13;29.33;;;15.93;;
22967;SDS011;11650;48.106;-1.696;2023-03-01T09:31:39;27.50;;;16.60;;
22967;SDS011;11650;48.106;-1.696;2023-03-01T09:34:05;26.47;;;16.33;;
22967;SDS011;11650;48.106;-1.696;2023-03-01T09:36:32;18.97;;;13.00;;
22967;SDS011;11650;48.106;-1.696;2023-03-01T09:38:58;21.77;;;14.80;;
22967;SDS011;11650;48.106;-1.696;2023-03-01T09:44:20;24.80;;;15.10;;
22967;SDS011;11650;48.106;-1.696;2023-03-01T09:46:59;23.30;;;13.97;;
22967;SDS011;11650;48.106;-1.696;2023-03-01T09:49:27;25.73;;;14.67;;
22967;SDS011;11650;48.106;-1.696;2023-03-01T09:54:30;30.63;;;19.13;;
22967;SDS011;11650;48.106;-1.696;2023-03-01T10:07:30;28.87;;;17.73;;
22967;SDS011;11650;48.106;-1.696;2023-03-01T10:10:00;26.10;;;15.20;;
22967;SDS011;11650;48.106;-1.696;2023-03-01T10:12:33;25.17;;;14.57;;
22967;SDS011;11650;48.106;-1.696;2023-03-01T10:17:56;23.23;;;13.73;;
22967;SDS011;11650;48.106;-1.696;2023-03-01T10:20:46;21.53;;;13.93;;
22967;SDS011;11650;48.106;-1.696;2023-03-01T10:23:22;22.33;;;15.07;;
22967;SDS011;11650;48.106;-1.696;2023-03-01T10:31:30;26.63;;;14.40;;
22967;SDS011;11650;48.106;-1.696;2023-03-01T10:34:25;22.33;;;14.57;;
22967;SDS011;11650;48.106;-1.696;2023-03-01T10:36:55;24.03;;;14.30;;
22967;SDS011;11650;48.106;-1.696;2023-03-01T10:39:26;21.57;;;15.07;;
22967;SDS011;11650;48.106;-1.696;2023-03-01T10:41:59;22.87;;;14.13;;
22967;SDS011;11650;48.106;-1.696;2023-03-01T10:47:02;27.57;;;15.63;;
22967;SDS011;11650;48.106;-1.696;2023-03-01T10:49:29;27.90;;;15.00;;
22967;SDS011;11650;48.106;-1.696;2023-03-01T10:51:54;25.10;;;15.87;;
22967;SDS011;11650;48.106;-1.696;2023-03-01T10:56:50;26.77;;;15.60;;
22967;SDS011;11650;48.106;-1.696;2023-03-01T11:05:13;25.47;;;15.90;;
22967;SDS011;11650;48.106;-1.696;2023-03-01T11:07:57;28.37;;;17.73;;
22967;SDS011;11650;48.106;-1.696;2023-03-01T11:10:25;29.27;;;18.87;;
22967;SDS011;11650;48.106;-1.696;2023-03-01T11:13:08;28.63;;;17.70;;
22967;SDS011;11650;48.106;-1.696;2023-03-01T11:15:40;24.30;;;16.67;;
22967;SDS011;11650;48.106;-1.696;2023-03-01T11:18:15;28.70;;;18.07;;
22967;SDS011;11650;48.106;-1.696;2023-03-01T11:20:44;24.40;;;16.43;;
22967;SDS011;11650;48.106;-1.696;2023-03-01T11:23:11;25.10;;;16.83;;
22967;SDS011;11650;48.106;-1.696;2023-03-01T11:25:47;28.27;;;17.83;;
22967;SDS011;11650;48.106;-1.696;2023-03-01T11:28:19;29.73;;;17.87;;
22967;SDS011;11650;48.106;-1.696;2023-03-01T11:30:55;28.27;;;18.13;;
22967;SDS011;11650;48.106;-1.696;2023-03-01T11:42:11;30.97;;;18.33;;
22967;SDS011;11650;48.106;-1.696;2023-03-01T11:44:42;29.73;;;19.90;;
22967;SDS011;11650;48.106;-1.696;2023-03-01T11:50:16;26.43;;;17.87;;
22967;SDS011;11650;48.106;-1.696;2023-03-01T12:01:24;25.80;;;16.57;;
22967;SDS011;11650;48.106;-1.696;2023-03-01T12:07:20;22.47;;;15.00;;
22967;SDS011;11650;48.106;-1.696;2023-03-01T12:12:54;25.37;;;14.93;;
22967;SDS011;11650;48.106;-1.696;2023-03-01T12:16:00;24.33;;;16.23;;
22967;SDS011;11650;48.106;-1.696;2023-03-01T12:21:13;22.63;;;15.60;;
22967;SDS011;11650;48.106;-1.696;2023-03-01T12:42:42;17.93;;;12.93;;
22967;SDS011;11650;48.106;-1.696;2023-03-01T12:50:58;20.20;;;12.90;;
22967;SDS011;11650;48.106;-1.696;2023-03-01T12:53:32;16.57;;;12.07;;
22967;SDS011;11650;48.106;-1.696;2023-03-01T12:56:46;14.57;;;11.43;;
22967;SDS011;11650;48.106;-1.696;2023-03-01T13:04:50;17.20;;;11.00;;
22967;SDS011;11650;48.106;-1.696;2023-03-01T13:07:39;14.57;;;11.10;;
22967;SDS011;11650;48.106;-1.696;2023-03-01T13:10:21;14.47;;;10.20;;
22967;SDS011;11650;48.106;-1.696;2023-03-01T13:13:02;14.00;;;8.93;;
22967;SDS011;11650;48.106;-1.696;2023-03-01T13:15:38;11.73;;;9.07;;
22967;SDS011;11650;48.106;-1.696;2023-03-01T13:39:02;9.20;;;6.90;;
22967;SDS011;11650;48.106;-1.696;2023-03-01T13:49:18;9.73;;;7.20;;
22967;SDS011;11650;48.106;-1.696;2023-03-01T13:51:47;8.48;;;7.20;;
22967;SDS011;11650;48.106;-1.696;2023-03-01T13:54:15;9.17;;;7.53;;
22967;SDS011;11650;48.106;-1.696;2023-03-01T13:56:42;9.63;;;7.30;;
22967;SDS011;11650;48.106;-1.696;2023-03-01T14:01:51;8.13;;;7.20;;
22967;SDS011;11650;48.106;-1.696;2023-03-01T14:09:46;11.20;;;7.57;;
22967;SDS011;11650;48.106;-1.696;2023-03-01T14:17:40;10.90;;;6.57;;
22967;SDS011;11650;48.106;-1.696;2023-03-01T14:20:12;9.13;;;6.40;;
22967;SDS011;11650;48.106;-1.696;2023-03-01T14:22:46;11.07;;;6.27;;
22967;SDS011;11650;48.106;-1.696;2023-03-01T14:28:04;10.17;;;7.00;;
22967;SDS011;11650;48.106;-1.696;2023-03-01T14:30:37;9.93;;;6.80;;
22967;SDS011;11650;48.106;-1.696;2023-03-01T14:36:00;8.57;;;6.80;;
22967;SDS011;11650;48.106;-1.696;2023-03-01T14:38:37;8.00;;;6.50;;
22967;SDS011;11650;48.106;-1.696;2023-03-01T14:41:27;8.03;;;6.60;;
22967;SDS011;11650;48.106;-1.696;2023-03-01T14:44:03;9.23;;;7.33;;
22967;SDS011;11650;48.106;-1.696;2023-03-01T14:46:39;9.13;;;7.27;;
22967;SDS011;11650;48.106;-1.696;2023-03-01T14:49:25;9.87;;;8.17;;
22967;SDS011;11650;48.106;-1.696;2023-03-01T14:57:21;10.87;;;8.43;;
22967;SDS011;11650;48.106;-1.696;2023-03-01T14:59:49;13.03;;;9.03;;
22967;SDS011;11650;48.106;-1.696;2023-03-01T15:02:19;11.13;;;8.97;;
22967;SDS011;11650;48.106;-1.696;2023-03-01T15:04:49;11.33;;;9.23;;
22967;SDS011;11650;48.106;-1.696;2023-03-01T15:07:28;13.30;;;9.73;;
22967;SDS011;11650;48.106;-1.696;2023-03-01T15:09:56;12.33;;;9.40;;
22967;SDS011;11650;48.106;-1.696;2023-03-01T15:12:25;14.60;;;9.37;;
22967;SDS011;11650;48.106;-1.696;2023-03-01T15:14:54;13.27;;;9.47;;
22967;SDS011;11650;48.106;-1.696;2023-03-01T15:19:53;13.80;;;9.53;;
22967;SDS011;11650;48.106;-1.696;2023-03-01T15:22:19;15.60;;;10.40;;
22967;SDS011;11650;48.106;-1.696;2023-03-01T15:24:48;12.43;;;9.73;;
22967;SDS011;11650;48.106;-1.696;2023-03-01T15:27:18;12.67;;;9.80;;
22967;SDS011;11650;48.106;-1.696;2023-03-01T15:29:57;13.37;;;9.80;;
22967;SDS011;11650;48.106;-1.696;2023-03-01T15:32:25;12.47;;;10.10;;
22967;SDS011;11650;48.106;-1.696;2023-03-01T15:34:55;15.63;;;10.50;;
22967;SDS011;11650;48.106;-1.696;2023-03-01T15:40:21;13.03;;;10.50;;
22967;SDS011;11650;48.106;-1.696;2023-03-01T15:42:59;13.13;;;10.80;;
22967;SDS011;11650;48.106;-1.696;2023-03-01T15:45:27;14.50;;;11.53;;
22967;SDS011;11650;48.106;-1.696;2023-03-01T15:47:57;14.13;;;12.00;;
22967;SDS011;11650;48.106;-1.696;2023-03-01T15:53:00;14.60;;;12.00;;
22967;SDS011;11650;48.106;-1.696;2023-03-01T15:55:30;16.87;;;12.63;;
22967;SDS011;11650;48.106;-1.696;2023-03-01T15:57:59;17.53;;;13.13;;
22967;SDS011;11650;48.106;-1.696;2023-03-01T16:00:28;14.87;;;12.87;;
22967;SDS011;11650;48.106;-1.696;2023-03-01T16:02:54;16.83;;;13.23;;
22967;SDS011;11650;48.106;-1.696;2023-03-01T16:05:24;19.47;;;13.47;;
22967;SDS011;11650;48.106;-1.696;2023-03-01T16:07:55;17.27;;;14.13;;
22967;SDS011;11650;48.106;-1.696;2023-03-01T16:10:22;16.40;;;13.67;;
22967;SDS011;11650;48.106;-1.696;2023-03-01T16:12:48;16.93;;;13.40;;
22967;SDS011;11650;48.106;-1.696;2023-03-01T16:15:21;15.97;;;13.07;;
22967;SDS011;11650;48.106;-1.696;2023-03-01T16:17:53;14.10;;;12.47;;
22967;SDS011;11650;48.106;-1.696;2023-03-01T16:20:20;18.43;;;13.13;;
22967;SDS011;11650;48.106;-1.696;2023-03-01T16:22:46;13.97;;;12.33;;
22967;SDS011;11650;48.106;-1.696;2023-03-01T16:25:13;15.00;;;12.27;;
22967;SDS011;11650;48.106;-1.696;2023-03-01T16:27:43;16.27;;;13.00;;
22967;SDS011;11650;48.106;-1.696;2023-03-01T16:30:10;18.43;;;12.90;;
22967;SDS011;11650;48.106;-1.696;2023-03-01T16:32:40;14.93;;;12.27;;
22967;SDS011;11650;48.106;-1.696;2023-03-01T16:35:08;18.67;;;12.83;;
22967;SDS011;11650;48.106;-1.696;2023-03-01T16:37:36;20.40;;;13.20;;
22967;SDS011;11650;48.106;-1.696;2023-03-01T16:40:03;18.13;;;12.37;;
22967;SDS011;11650;48.106;-1.696;2023-03-01T16:42:36;14.50;;;12.17;;
22967;SDS011;11650;48.106;-1.696;2023-03-01T16:45:02;14.73;;;11.27;;
22967;SDS011;11650;48.106;-1.696;2023-03-01T16:47:28;13.80;;;11.00;;
22967;SDS011;11650;48.106;-1.696;2023-03-01T16:49:54;13.87;;;10.10;;
22967;SDS011;11650;48.106;-1.696;2023-03-01T16:52:20;12.77;;;10.27;;
22967;SDS011;11650;48.106;-1.696;2023-03-01T16:54:47;13.43;;;10.27;;
22967;SDS011;11650;48.106;-1.696;2023-03-01T16:57:13;15.27;;;10.77;;
22967;SDS011;11650;48.106;-1.696;2023-03-01T16:59:39;17.30;;;10.80;;
22967;SDS011;11650;48.106;-1.696;2023-03-01T17:02:05;16.73;;;11.00;;
22967;SDS011;11650;48.106;-1.696;2023-03-01T17:04:35;15.13;;;10.23;;
22967;SDS011;11650;48.106;-1.696;2023-03-01T17:07:01;15.93;;;10.77;;
22967;SDS011;11650;48.106;-1.696;2023-03-01T17:09:27;18.67;;;10.60;;
22967;SDS011;11650;48.106;-1.696;2023-03-01T17:11:53;14.53;;;10.67;;
22967;SDS011;11650;48.106;-1.696;2023-03-01T17:14:19;16.03;;;10.67;;
22967;SDS011;11650;48.106;-1.696;2023-03-01T17:16:45;16.23;;;10.33;;
22967;SDS011;11650;48.106;-1.696;2023-03-01T17:19:11;17.03;;;10.67;;
22967;SDS011;11650;48.106;-1.696;2023-03-01T17:21:42;16.07;;;12.00;;
22967;SDS011;11650;48.106;-1.696;2023-03-01T17:24:08;17.77;;;11.77;;
22967;SDS011;11650;48.106;-1.696;2023-03-01T17:26:34;18.67;;;11.67;;
22967;SDS011;11650;48.106;-1.696;2023-03-01T17:29:00;21.30;;;13.07;;
22967;SDS011;11650;48.106;-1.696;2023-03-01T17:31:27;18.03;;;12.23;;
22967;SDS011;11650;48.106;-1.696;2023-03-01T17:33:53;17.40;;;12.37;;
22967;SDS011;11650;48.106;-1.696;2023-03-01T17:36:19;17.27;;;12.17;;
22967;SDS011;11650;48.106;-1.696;2023-03-01T17:38:44;19.53;;;12.23;;
22967;SDS011;11650;48.106;-1.696;2023-03-01T17:41:11;21.33;;;12.80;;
22967;SDS011;11650;48.106;-1.696;2023-03-01T17:43:37;19.03;;;12.67;;
22967;SDS011;11650;48.106;-1.696;2023-03-01T17:46:02;21.03;;;12.20;;
22967;SDS011;11650;48.106;-1.696;2023-03-01T17:48:28;17.70;;;12.70;;
22967;SDS011;11650;48.106;-1.696;2023-03-01T17:50:54;23.07;;;13.13;;
22967;SDS011;11650;48.106;-1.696;2023-03-01T17:53:20;21.17;;;12.90;;
22967;SDS011;11650;48.106;-1.696;2023-03-01T17:55:46;23.00;;;13.17;;
22967;SDS011;11650;48.106;-1.696;2023-03-01T17:58:17;21.40;;;13.63;;
22967;SDS011;11650;48.106;-1.696;2023-03-01T18:00:46;25.17;;;14.13;;
22967;SDS011;11650;48.106;-1.696;2023-03-01T18:03:13;23.03;;;13.20;;
22967;SDS011;11650;48.106;-1.696;2023-03-01T18:05:39;23.97;;;13.67;;
22967;SDS011;11650;48.106;-1.696;2023-03-01T18:08:05;19.40;;;13.63;;
22967;SDS011;11650;48.106;-1.696;2023-03-01T18:10:31;20.80;;;13.00;;
22967;SDS011;11650;48.106;-1.696;2023-03-01T18:12:58;18.87;;;13.67;;
22967;SDS011;11650;48.106;-1.696;2023-03-01T18:15:24;21.53;;;12.93;;
22967;SDS011;11650;48.106;-1.696;2023-03-01T18:17:49;20.87;;;12.80;;
22967;SDS011;11650;48.106;-1.696;2023-03-01T18:20:15;23.17;;;12.50;;
22967;SDS011;11650;48.106;-1.696;2023-03-01T18:22:41;19.17;;;12.53;;
22967;SDS011;11650;48.106;-1.696;2023-03-01T18:25:07;19.27;;;11.97;;
22967;SDS011;11650;48.106;-1.696;2023-03-01T18:27:33;20.70;;;12.70;;
22967;SDS011;11650;48.106;-1.696;2023-03-01T18:30:00;21.63;;;12.93;;
22967;SDS011;11650;48.106;-1.696;2023-03-01T18:32:27;22.83;;;12.53;;
22967;SDS011;11650;48.106;-1.696;2023-03-01T18:34:53;20.27;;;12.97;;
22967;SDS011;11650;48.106;-1.696;2023-03-01T18:37:18;24.97;;;13.73;;
22967;SDS011;11650;48.106;-1.696;2023-03-01T18:39:44;20.63;;;13.23;;
22967;SDS011;11650;48.106;-1.696;2023-03-01T18:42:10;22.13;;;14.00;;
22967;SDS011;11650;48.106;-1.696;2023-03-01T18:44:35;22.57;;;14.13;;
22967;SDS011;11650;48.106;-1.696;2023-03-01T18:47:02;23.07;;;14.93;;